Time;durP1;ratioP1;P1;durP2;ratioP2;P2;SDS_P1;SDS_P2;PMS_P1;PMS_P2;Temp;Humidity;BMP_temperature;BMP_pressure;BME280_temperature;BME280_humidity;BME280_pressure;Samples;Min_cycle;Max_cycle;Signal;HPM_P1;HPM_P2
2023/05/29 00:00:22;;;;;;;14.60;8.00;;;15.10;25.00;;;;;;4939529;29;20177;-84
2023/05/29 00:02:51;;;;;;;14.30;8.03;;;15.20;26.20;;;;;;4922922;29;20593;-83
2023/05/29 00:05:18;;;;;;;15.10;8.03;;;15.10;27.30;;;;;;4937576;29;20189;-85
2023/05/29 00:07:44;;;;;;;13.83;8.17;;;15.10;29.70;;;;;;4937593;29;20170;-85
2023/05/29 00:10:12;;;;;;;15.73;7.90;;;15.10;28.80;;;;;;4938675;29;20215;-85
2023/05/29 00:12:39;;;;;;;14.00;8.40;;;15.00;30.20;;;;;;4938165;29;20187;-85
2023/05/29 00:15:05;;;;;;;13.50;7.70;;;15.00;33.90;;;;;;4936944;29;20231;-84
2023/05/29 00:17:33;;;;;;;12.73;8.70;;;14.90;34.60;;;;;;4938340;29;20219;-85
2023/05/29 00:20:01;;;;;;;12.90;8.07;;;14.90;37.80;;;;;;4939293;29;20168;-84
2023/05/29 00:22:27;;;;;;;13.67;8.07;;;14.90;36.90;;;;;;4938070;29;20601;-85
2023/05/29 00:24:53;;;;;;;12.47;7.93;;;14.80;40.70;;;;;;4937871;29;20316;-86
2023/05/29 00:27:19;;;;;;;15.30;7.33;;;14.70;41.60;;;;;;4938604;29;20206;-85
2023/05/29 00:29:47;;;;;;;15.27;8.87;;;14.70;44.60;;;;;;4940552;29;20177;-84
2023/05/29 00:32:12;;;;;;;15.03;8.73;;;14.70;46.00;;;;;;4941800;29;20177;-84
2023/05/29 00:34:38;;;;;;;11.70;7.40;;;14.60;47.70;;;;;;4953629;28;20178;-85
2023/05/29 00:37:04;;;;;;;14.30;8.40;;;14.60;49.10;;;;;;4959116;28;20223;-82
2023/05/29 00:39:30;;;;;;;12.67;8.33;;;14.50;51.20;;;;;;4975790;28;20168;-82
2023/05/29 00:41:57;;;;;;;15.17;8.60;;;14.50;52.10;;;;;;4978632;28;20213;-84
2023/05/29 00:44:46;;;;;;;12.20;8.57;;;14.50;51.90;;;;;;4969304;29;20242;-85
2023/05/29 00:47:12;;;;;;;11.20;7.60;;;14.40;53.80;;;;;;4964155;28;20164;-83
2023/05/29 00:49:58;;;;;;;16.23;8.83;;;14.30;57.70;;;;;;4958265;29;20210;-85
2023/05/29 00:52:25;;;;;;;13.57;8.47;;;14.30;57.20;;;;;;4959514;28;20173;-86
2023/05/29 00:54:52;;;;;;;14.57;8.83;;;14.30;58.40;;;;;;4970957;29;20277;-83
2023/05/29 00:57:18;;;;;;;13.00;8.73;;;14.30;59.70;;;;;;4971049;29;20214;-85
2023/05/29 00:59:45;;;;;;;12.63;8.30;;;14.20;59.20;;;;;;4963416;29;20663;-83
2023/05/29 01:02:12;;;;;;;15.83;8.53;;;14.20;60.00;;;;;;4965113;28;20172;-85
2023/05/29 01:04:39;;;;;;;11.93;8.03;;;14.10;62.60;;;;;;4958937;29;20176;-84
2023/05/29 01:07:06;;;;;;;13.00;8.40;;;14.10;64.10;;;;;;4961896;29;20197;-84
2023/05/29 01:09:36;;;;;;;16.40;8.43;;;14.00;69.90;;;;;;4949158;29;20175;-85
2023/05/29 01:12:20;;;;;;;14.30;8.40;;;14.00;72.00;;;;;;4944361;29;20200;-82
2023/05/29 01:15:04;;;;;;;14.17;8.57;;;13.90;73.90;;;;;;4946093;29;20211;-82
2023/05/29 01:17:33;;;;;;;14.37;8.60;;;13.90;78.80;;;;;;4950923;29;20215;-85
2023/05/29 01:20:21;;;;;;;14.30;8.23;;;13.80;81.80;;;;;;4944801;29;20189;-84
2023/05/29 01:23:09;;;;;;;11.90;7.93;;;13.70;83.20;;;;;;4960157;28;20178;-82
2023/05/29 01:25:47;;;;;;;13.83;8.40;;;13.60;85.90;;;;;;4958928;28;20157;-83
2023/05/29 01:28:15;;;;;;;14.07;8.80;;;13.50;90.40;;;;;;4957804;29;20169;-83
2023/05/29 01:30:45;;;;;;;14.23;8.27;;;13.50;90.70;;;;;;4937526;29;20283;-84
2023/05/29 01:33:19;;;;;;;12.77;8.23;;;13.50;91.00;;;;;;4935494;29;20248;-84
2023/05/29 01:35:45;;;;;;;14.10;7.83;;;13.50;92.20;;;;;;4935334;29;20216;-85
2023/05/29 01:38:11;;;;;;;13.57;8.20;;;13.50;92.50;;;;;;4935470;29;20592;-84
2023/05/29 01:40:37;;;;;;;11.77;7.63;;;13.40;92.50;;;;;;4934798;29;20717;-86
2023/05/29 01:43:05;;;;;;;13.63;8.00;;;13.40;92.40;;;;;;4969282;28;20173;-84
2023/05/29 01:45:32;;;;;;;12.83;8.00;;;13.40;93.20;;;;;;4990899;28;20204;-82
2023/05/29 01:47:57;;;;;;;13.80;7.90;;;13.40;93.30;;;;;;4957938;28;20177;-84
2023/05/29 01:50:24;;;;;;;11.33;7.37;;;13.30;93.70;;;;;;4958142;28;20168;-82
2023/05/29 01:52:53;;;;;;;14.90;8.03;;;13.30;93.40;;;;;;4949144;29;20210;-86
2023/05/29 01:55:22;;;;;;;13.77;8.70;;;13.30;94.10;;;;;;4935585;29;20259;-85
2023/05/29 01:57:51;;;;;;;15.07;8.57;;;13.30;94.30;;;;;;4935894;29;20272;-85
2023/05/29 02:00:18;;;;;;;14.67;8.27;;;13.30;94.40;;;;;;4936150;29;20185;-85
2023/05/29 02:02:44;;;;;;;13.27;7.97;;;13.30;93.40;;;;;;4935180;29;20294;-85
2023/05/29 02:05:10;;;;;;;22.87;8.17;;;13.30;91.60;;;;;;4935824;29;20247;-85
2023/05/29 02:07:37;;;;;;;20.73;8.00;;;13.20;91.70;;;;;;4937634;29;20187;-85
2023/05/29 02:10:07;;;;;;;12.93;7.83;;;13.20;91.10;;;;;;4955210;29;20720;-86
2023/05/29 02:12:32;;;;;;;11.57;7.73;;;13.10;93.30;;;;;;4958530;28;20189;-84
2023/05/29 02:14:58;;;;;;;12.70;8.27;;;13.00;93.00;;;;;;4949104;29;20189;-84
2023/05/29 02:17:24;;;;;;;11.53;6.63;;;13.00;94.10;;;;;;4938030;29;20243;-84
2023/05/29 02:19:50;;;;;;;17.17;8.17;;;13.00;93.00;;;;;;4937966;29;20165;-85
2023/05/29 02:22:17;;;;;;;16.77;8.43;;;13.00;94.40;;;;;;4937906;29;20212;-85
2023/05/29 02:24:43;;;;;;;14.20;7.97;;;13.00;93.40;;;;;;4936654;29;20177;-85
2023/05/29 02:27:09;;;;;;;11.17;7.50;;;13.00;92.50;;;;;;4937558;29;20177;-85
2023/05/29 02:29:36;;;;;;;11.93;7.70;;;13.00;92.20;;;;;;4937680;29;20185;-84
2023/05/29 02:32:01;;;;;;;13.20;6.63;;;13.00;91.60;;;;;;4938758;29;20596;-83
2023/05/29 02:34:27;;;;;;;14.73;6.60;;;12.90;90.00;;;;;;4941889;29;20173;-83
2023/05/29 02:36:53;;;;;;;9.90;5.67;;;12.90;88.00;;;;;;4937896;29;20697;-86
2023/05/29 02:39:20;;;;;;;8.93;5.67;;;12.90;84.80;;;;;;4947189;29;20196;-84
2023/05/29 02:41:46;;;;;;;10.27;5.40;;;12.70;83.50;;;;;;4956156;29;20641;-84
2023/05/29 02:44:12;;;;;;;13.77;6.90;;;12.70;80.50;;;;;;4957580;29;20204;-86
2023/05/29 02:46:37;;;;;;;14.37;6.67;;;12.70;81.10;;;;;;4957431;29;20556;-84
2023/05/29 02:49:03;;;;;;;14.77;6.27;;;12.70;78.80;;;;;;4956984;29;20263;-84
2023/05/29 02:51:29;;;;;;;15.60;6.13;;;12.70;77.70;;;;;;4959456;29;20186;-84
2023/05/29 02:53:55;;;;;;;10.23;5.50;;;12.70;75.50;;;;;;4956753;28;20183;-85
2023/05/29 02:56:24;;;;;;;12.77;5.50;;;12.70;73.90;;;;;;4958219;29;20208;-84
2023/05/29 02:58:50;;;;;;;12.87;6.07;;;12.60;71.30;;;;;;4957043;29;20586;-85
2023/05/29 03:01:17;;;;;;;11.90;6.10;;;12.60;72.50;;;;;;4958098;28;20204;-85
2023/05/29 03:03:43;;;;;;;14.00;5.70;;;12.60;74.50;;;;;;4956249;29;20228;-84
2023/05/29 03:06:12;;;;;;;13.47;5.37;;;12.60;71.90;;;;;;4957262;29;20180;-84
2023/05/29 03:08:41;;;;;;;9.80;5.07;;;12.60;65.80;;;;;;4954958;29;20180;-83
2023/05/29 03:11:13;;;;;;;11.13;5.20;;;12.70;64.40;;;;;;4957233;29;20187;-84
2023/05/29 03:13:39;;;;;;;9.27;4.57;;;12.60;61.20;;;;;;4956519;29;20184;-85
2023/05/29 03:16:05;;;;;;;10.60;5.43;;;12.50;60.10;;;;;;4956795;28;20270;-84
2023/05/29 03:18:31;;;;;;;13.40;4.50;;;12.30;62.10;;;;;;4956680;29;20188;-84
2023/05/29 03:20:56;;;;;;;12.83;4.83;;;12.40;57.60;;;;;;4971530;29;20196;-84
2023/05/29 03:23:22;;;;;;;11.97;4.40;;;12.40;55.20;;;;;;4958383;29;20186;-83
2023/05/29 03:25:48;;;;;;;14.67;4.90;;;12.40;51.00;;;;;;4955815;29;20188;-85
2023/05/29 03:28:14;;;;;;;11.13;4.17;;;12.30;49.20;;;;;;4956960;29;20180;-85
2023/05/29 03:30:40;;;;;;;11.67;4.27;;;12.30;44.40;;;;;;4957097;29;20231;-85
2023/05/29 03:33:05;;;;;;;12.67;5.20;;;12.10;42.20;;;;;;4959044;28;20187;-84
2023/05/29 03:35:32;;;;;;;21.13;4.30;;;12.20;41.50;;;;;;4956766;29;20575;-84
2023/05/29 03:37:58;;;;;;;10.27;3.50;;;12.10;38.60;;;;;;4962111;29;20192;-84
2023/05/29 03:40:24;;;;;;;8.63;3.73;;;12.10;38.60;;;;;;4968682;29;20184;-84
2023/05/29 03:42:50;;;;;;;12.40;3.90;;;12.10;40.90;;;;;;4957905;29;20191;-84
2023/05/29 03:45:16;;;;;;;14.30;4.10;;;12.20;41.20;;;;;;4958161;28;20530;-84
2023/05/29 03:47:44;;;;;;;17.00;4.43;;;12.10;36.40;;;;;;4958503;28;20259;-84
2023/05/29 03:50:14;;;;;;;10.73;4.03;;;12.10;38.60;;;;;;4956286;29;20472;-83
2023/05/29 03:52:39;;;;;;;9.47;3.43;;;12.10;33.90;;;;;;4956424;29;20278;-84
2023/05/29 03:55:12;;;;;;;12.60;3.77;;;12.00;29.50;;;;;;4957616;29;20168;-84
2023/05/29 03:57:42;;;;;;;10.73;3.63;;;12.00;26.40;;;;;;4963209;28;20251;-84
2023/05/29 04:00:10;;;;;;;10.43;3.33;;;12.10;23.00;;;;;;4965362;28;20183;-83
2023/05/29 04:02:37;;;;;;;9.07;3.47;;;12.00;19.20;;;;;;4965048;29;20196;-84
2023/05/29 04:05:08;;;;;;;9.90;3.47;;;12.00;14.10;;;;;;4956242;28;20211;-84
2023/05/29 04:07:37;;;;;;;9.43;3.10;;;12.00;15.30;;;;;;4956010;29;20207;-85
2023/05/29 04:10:03;;;;;;;15.03;3.73;;;12.00;16.40;;;;;;4945874;28;20717;-86
2023/05/29 04:12:29;;;;;;;13.20;4.00;;;11.90;19.10;;;;;;4948082;28;20189;-82
2023/05/29 04:14:54;;;;;;;11.67;3.70;;;12.00;17.50;;;;;;4959193;28;20372;-83
2023/05/29 04:17:20;;;;;;;10.60;3.50;;;12.10;17.40;;;;;;4959356;28;20246;-83
2023/05/29 04:19:47;;;;;;;9.90;3.47;;;11.90;17.30;;;;;;4959992;28;20161;-82
2023/05/29 04:22:15;;;;;;;10.80;4.20;;;11.90;14.10;;;;;;4953823;28;20212;-83
2023/05/29 04:25:00;;;;;;;10.90;3.40;;;11.90;15.50;;;;;;4950961;29;20181;-84
2023/05/29 04:27:31;;;;;;;12.70;3.10;;;11.90;14.00;;;;;;4939403;29;20215;-84
2023/05/29 04:30:02;;;;;;;14.23;4.43;;;11.90;12.80;;;;;;4941798;29;20257;-85
2023/05/29 04:32:27;;;;;;;11.17;3.60;;;11.90;13.30;;;;;;4938950;29;20236;-83
2023/05/29 04:34:53;;;;;;;12.03;3.80;;;11.80;14.50;;;;;;4939810;29;20177;-85
2023/05/29 04:37:21;;;;;;;10.73;3.20;;;11.70;14.20;;;;;;4944201;29;20253;-84
2023/05/29 04:39:46;;;;;;;14.00;4.63;;;11.70;16.30;;;;;;4959950;28;20161;-82
2023/05/29 04:42:14;;;;;;;10.53;3.57;;;11.80;14.00;;;;;;4954431;28;20267;-85
2023/05/29 04:44:40;;;;;;;9.27;4.07;;;11.80;11.70;;;;;;4945055;29;20700;-84
2023/05/29 04:47:08;;;;;;;12.53;3.90;;;11.90;9.10;;;;;;4942048;29;20190;-84
2023/05/29 04:49:37;;;;;;;14.13;4.00;;;12.00;7.50;;;;;;4937588;29;20169;-86
2023/05/29 04:52:04;;;;;;;13.57;3.80;;;12.00;9.10;;;;;;4937364;29;20158;-83
2023/05/29 04:54:33;;;;;;;11.70;3.37;;;12.00;4.00;;;;;;4937064;29;20161;-84
2023/05/29 04:57:00;;;;;;;12.53;3.90;;;12.00;4.10;;;;;;4938060;29;20215;-83
2023/05/29 04:59:26;;;;;;;11.63;4.03;;;12.00;1.00;;;;;;4941947;29;20172;-82
2023/05/29 05:01:51;;;;;;;11.63;3.63;;;11.90;1.00;;;;;;4955625;28;20169;-84
2023/05/29 05:04:17;;;;;;;14.33;3.67;;;11.90;2.40;;;;;;4959960;28;20163;-83
2023/05/29 05:06:44;;;;;;;11.93;3.67;;;11.90;1.00;;;;;;4945633;28;20185;-84
2023/05/29 05:09:09;;;;;;;11.40;3.33;;;12.00;1.90;;;;;;4943331;29;20176;-85
2023/05/29 05:11:35;;;;;;;8.73;3.40;;;12.10;1.00;;;;;;4936984;29;20192;-84
2023/05/29 05:14:16;;;;;;;12.37;3.80;;;12.10;1.00;;;;;;4937602;29;20273;-83
2023/05/29 05:16:42;;;;;;;12.83;3.60;;;12.10;1.00;;;;;;4936412;29;20212;-85
2023/05/29 05:19:07;;;;;;;10.77;3.57;;;12.00;1.00;;;;;;4935630;29;20184;-84
2023/05/29 05:21:33;;;;;;;9.03;3.23;;;12.10;1.00;;;;;;4937366;29;20188;-84
2023/05/29 05:24:00;;;;;;;18.87;4.33;;;12.10;1.00;;;;;;4937530;29;20256;-85
2023/05/29 05:26:28;;;;;;;12.47;3.87;;;12.00;1.00;;;;;;4935823;29;20251;-86
2023/05/29 05:28:56;;;;;;;12.03;4.10;;;12.00;1.00;;;;;;4938191;29;20185;-84
2023/05/29 05:31:22;;;;;;;9.93;3.67;;;12.00;1.00;;;;;;4936506;29;20173;-84
2023/05/29 05:33:48;;;;;;;11.43;3.80;;;12.10;1.20;;;;;;4936233;29;20411;-84
2023/05/29 05:36:14;;;;;;;11.27;3.87;;;12.10;1.00;;;;;;4935854;29;20672;-84
2023/05/29 05:38:40;;;;;;;10.00;3.47;;;12.20;1.00;;;;;;4937095;29;20169;-84
2023/05/29 05:41:06;;;;;;;11.23;3.27;;;12.20;1.00;;;;;;4939229;29;20181;-84
2023/05/29 05:43:32;;;;;;;13.67;3.20;;;12.40;1.00;;;;;;4940206;29;20657;-84
2023/05/29 05:45:58;;;;;;;8.33;2.50;;;12.20;1.00;;;;;;4940290;29;20204;-84
2023/05/29 05:48:23;;;;;;;10.27;3.70;;;12.20;1.00;;;;;;4940727;29;20165;-84
2023/05/29 05:50:49;;;;;;;11.83;4.33;;;12.20;1.00;;;;;;4940536;29;20181;-85
2023/05/29 05:53:16;;;;;;;14.60;3.80;;;12.20;1.00;;;;;;4940841;29;20169;-85
2023/05/29 05:55:42;;;;;;;10.57;2.63;;;12.20;1.00;;;;;;4941267;29;20197;-86
2023/05/29 05:58:07;;;;;;;13.20;3.93;;;12.20;1.00;;;;;;4940971;29;20179;-85
2023/05/29 06:00:33;;;;;;;11.47;3.40;;;12.30;1.00;;;;;;4949683;29;20180;-83
2023/05/29 06:03:00;;;;;;;9.10;2.87;;;12.40;1.00;;;;;;4959486;28;20206;-84
2023/05/29 06:05:26;;;;;;;10.47;3.07;;;12.40;1.00;;;;;;4942544;29;20184;-84
2023/05/29 06:07:54;;;;;;;17.50;4.60;;;12.40;1.00;;;;;;4939927;29;20165;-84
2023/05/29 06:10:19;;;;;;;14.17;3.50;;;12.50;1.00;;;;;;4940704;29;20269;-84
2023/05/29 06:12:45;;;;;;;8.50;3.53;;;12.40;1.00;;;;;;4942190;29;20193;-84
2023/05/29 06:15:12;;;;;;;9.40;2.87;;;12.20;1.00;;;;;;4943508;29;20638;-84
2023/05/29 06:17:39;;;;;;;12.50;3.97;;;12.40;1.00;;;;;;4954580;29;20232;-83
2023/05/29 06:20:10;;;;;;;13.80;3.40;;;12.50;1.00;;;;;;4957549;28;20171;-83
2023/05/29 06:22:36;;;;;;;12.80;4.10;;;12.50;1.00;;;;;;4955185;29;20188;-84
2023/05/29 06:25:02;;;;;;;13.87;3.20;;;12.50;1.00;;;;;;4962283;28;20629;-85
2023/05/29 06:27:28;;;;;;;12.70;3.60;;;12.50;1.00;;;;;;4961576;28;20183;-84
2023/05/29 06:29:53;;;;;;;10.60;3.90;;;12.50;1.00;;;;;;4957809;29;20180;-83
2023/05/29 06:32:20;;;;;;;9.13;3.30;;;12.60;1.00;;;;;;4940768;29;20180;-83
2023/05/29 06:34:45;;;;;;;9.57;3.40;;;12.70;1.00;;;;;;4941950;29;20189;-84
2023/05/29 06:37:11;;;;;;;13.30;3.20;;;12.80;1.00;;;;;;4939936;29;20213;-85
2023/05/29 06:39:38;;;;;;;12.80;4.10;;;12.90;1.00;;;;;;4939357;29;20200;-84
2023/05/29 06:42:04;;;;;;;10.17;3.23;;;13.00;1.00;;;;;;4936551;29;20264;-84
2023/05/29 06:44:30;;;;;;;9.90;3.10;;;13.00;1.00;;;;;;4939543;29;20586;-83
2023/05/29 06:46:56;;;;;;;12.60;4.03;;;13.10;1.00;;;;;;4939123;29;20263;-86
2023/05/29 06:49:21;;;;;;;11.67;3.70;;;13.00;1.00;;;;;;4937717;29;20546;-83
2023/05/29 06:51:47;;;;;;;14.80;3.53;;;13.00;1.00;;;;;;4943466;29;20180;-85
2023/05/29 06:54:13;;;;;;;12.37;3.63;;;13.10;1.00;;;;;;4920266;29;20202;-84
2023/05/29 06:56:39;;;;;;;13.13;4.53;;;13.20;1.00;;;;;;4917038;29;20226;-84
2023/05/29 06:59:05;;;;;;;12.47;3.90;;;13.20;1.00;;;;;;4919879;29;20166;-84
2023/05/29 07:01:30;;;;;;;8.90;3.10;;;13.30;1.00;;;;;;4920034;29;20202;-84
2023/05/29 07:03:56;;;;;;;14.17;4.07;;;13.10;1.00;;;;;;4918067;29;20181;-85
2023/05/29 07:06:22;;;;;;;11.37;3.73;;;13.10;1.00;;;;;;4920582;29;20225;-83
2023/05/29 07:08:47;;;;;;;12.37;3.43;;;13.30;1.00;;;;;;4919382;29;20647;-87
2023/05/29 07:11:13;;;;;;;16.90;4.33;;;13.40;1.00;;;;;;4954822;29;20175;-84
2023/05/29 07:13:39;;;;;;;13.27;3.33;;;13.40;1.00;;;;;;4919640;29;20272;-85
2023/05/29 07:16:05;;;;;;;12.43;3.97;;;13.40;1.00;;;;;;4921438;29;20215;-83
2023/05/29 07:18:30;;;;;;;31.90;5.50;;;13.30;1.00;;;;;;4920749;29;20721;-87
2023/05/29 07:20:56;;;;;;;13.20;3.50;;;13.30;1.00;;;;;;4962717;28;20205;-85
2023/05/29 07:23:22;;;;;;;11.93;3.77;;;13.30;1.00;;;;;;4939651;29;20278;-85
2023/05/29 07:25:48;;;;;;;8.63;3.20;;;13.30;1.00;;;;;;4937872;29;20214;-84
2023/05/29 07:28:13;;;;;;;8.77;2.90;;;13.50;1.00;;;;;;4936730;29;20178;-83
2023/05/29 07:30:40;;;;;;;9.13;3.70;;;13.60;1.00;;;;;;4938435;29;20486;-85
2023/05/29 07:33:06;;;;;;;10.30;3.10;;;13.60;1.00;;;;;;4939860;29;20183;-86
2023/05/29 07:35:33;;;;;;;13.50;3.70;;;13.80;1.00;;;;;;4947267;29;20197;-87
2023/05/29 07:37:59;;;;;;;9.97;3.67;;;13.80;1.00;;;;;;4949481;29;20210;-88
2023/05/29 07:40:26;;;;;;;7.23;3.10;;;13.90;1.00;;;;;;4950868;29;20189;-86
2023/05/29 07:42:52;;;;;;;9.43;3.63;;;13.90;1.00;;;;;;4949467;29;20776;-87
2023/05/29 07:45:17;;;;;;;12.60;3.13;;;14.00;1.00;;;;;;4945845;29;20200;-88
2023/05/29 07:47:45;;;;;;;14.30;3.67;;;14.10;1.00;;;;;;4941932;29;20204;-88
2023/05/29 07:50:12;;;;;;;11.97;3.77;;;14.20;1.00;;;;;;4958069;28;20234;-85
2023/05/29 07:52:38;;;;;;;12.43;3.60;;;14.40;1.00;;;;;;4958815;28;20172;-85
2023/05/29 07:55:04;;;;;;;10.10;3.40;;;14.50;1.00;;;;;;4959785;28;20191;-84
2023/05/29 07:57:30;;;;;;;10.90;3.07;;;14.50;1.00;;;;;;4959813;28;20214;-86
2023/05/29 07:59:56;;;;;;;10.63;3.20;;;14.50;1.00;;;;;;4951428;29;20179;-86
2023/05/29 08:02:23;;;;;;;11.30;3.37;;;14.70;1.00;;;;;;4946225;29;20185;-83
2023/05/29 08:04:48;;;;;;;12.20;3.60;;;14.80;1.00;;;;;;4943661;29;20171;-87
2023/05/29 08:07:15;;;;;;;8.03;2.60;;;14.80;1.00;;;;;;4944885;29;20479;-85
2023/05/29 08:09:40;;;;;;;8.60;2.97;;;14.70;1.00;;;;;;4940959;29;20653;-83
2023/05/29 08:12:06;;;;;;;11.33;3.30;;;14.70;1.00;;;;;;4943164;29;20204;-86
2023/05/29 08:14:35;;;;;;;9.17;2.83;;;14.60;1.00;;;;;;4944549;29;20173;-87
2023/05/29 08:17:00;;;;;;;9.17;3.57;;;14.80;1.00;;;;;;4947366;28;20267;-82
2023/05/29 08:19:26;;;;;;;10.90;3.50;;;14.80;1.00;;;;;;4959877;28;20164;-85
2023/05/29 08:21:52;;;;;;;9.73;3.10;;;14.80;1.00;;;;;;4957450;28;20168;-85
2023/05/29 08:24:19;;;;;;;8.60;3.20;;;14.90;1.00;;;;;;4952953;29;20180;-86
2023/05/29 08:26:48;;;;;;;8.03;2.97;;;14.80;1.00;;;;;;4945140;29;20314;-85
2023/05/29 08:29:14;;;;;;;7.97;3.33;;;14.80;1.00;;;;;;4947309;29;20173;-85
2023/05/29 08:31:40;;;;;;;7.57;2.67;;;15.00;1.00;;;;;;4947491;29;20526;-87
2023/05/29 08:34:06;;;;;;;12.93;3.17;;;14.90;1.00;;;;;;4941434;29;20176;-87
2023/05/29 08:36:32;;;;;;;12.10;3.13;;;14.80;1.00;;;;;;4924932;29;20236;-86
2023/05/29 08:38:58;;;;;;;10.10;3.73;;;14.90;1.00;;;;;;4935921;29;20160;-84
2023/05/29 08:41:50;;;;;;;10.93;3.57;;;14.90;1.00;;;;;;4928568;29;20183;-84
2023/05/29 08:44:22;;;;;;;8.73;3.40;;;14.90;1.00;;;;;;4957465;29;20263;-88
2023/05/29 08:47:00;;;;;;;10.93;3.20;;;15.00;1.00;;;;;;4934831;29;20188;-85
2023/05/29 08:49:29;;;;;;;10.60;3.30;;;15.10;1.00;;;;;;4939267;29;20161;-84
2023/05/29 08:52:16;;;;;;;13.70;3.60;;;15.20;1.00;;;;;;4926914;29;20172;-87
2023/05/29 08:54:43;;;;;;;8.10;2.70;;;15.20;1.00;;;;;;4925162;29;20181;-86
2023/05/29 08:57:11;;;;;;;10.83;2.80;;;15.50;1.00;;;;;;4920463;29;20217;-83
2023/05/29 08:59:42;;;;;;;11.30;3.10;;;15.60;1.00;;;;;;4935738;29;20197;-86
2023/05/29 09:02:10;;;;;;;9.97;3.30;;;15.80;1.00;;;;;;4961798;29;20176;-88
2023/05/29 09:04:37;;;;;;;13.37;3.83;;;15.80;1.00;;;;;;4955966;28;20609;-87
2023/05/29 09:07:30;;;;;;;8.30;3.10;;;15.80;1.00;;;;;;4943392;29;20173;-85
2023/05/29 09:09:58;;;;;;;8.70;3.23;;;15.80;1.00;;;;;;4950242;29;20161;-87
2023/05/29 09:12:24;;;;;;;8.77;3.27;;;15.70;1.00;;;;;;4943774;29;20252;-85
2023/05/29 09:14:50;;;;;;;9.53;3.10;;;15.90;1.00;;;;;;4943778;29;20184;-90
2023/05/29 09:17:16;;;;;;;7.30;2.83;;;15.80;1.00;;;;;;4945707;29;20681;-90
2023/05/29 09:19:42;;;;;;;8.27;2.77;;;15.70;1.00;;;;;;4945162;29;20626;-84
2023/05/29 09:22:11;;;;;;;11.07;2.87;;;15.80;1.00;;;;;;4945016;29;20181;-86
2023/05/29 09:24:40;;;;;;;9.83;3.27;;;15.90;1.00;;;;;;4946664;29;20169;-86
2023/05/29 09:27:07;;;;;;;12.00;3.23;;;15.90;1.00;;;;;;4948814;29;20189;-85
2023/05/29 09:29:45;;;;;;;10.70;3.00;;;15.80;1.00;;;;;;4947848;29;20185;-86
2023/05/29 09:32:19;;;;;;;10.23;3.13;;;16.00;1.00;;;;;;4946596;29;20179;-87
2023/05/29 09:34:53;;;;;;;11.33;3.67;;;16.10;1.00;;;;;;4947109;29;20208;-87
2023/05/29 09:37:22;;;;;;;13.90;3.03;;;16.20;1.00;;;;;;4950011;29;20200;-86
2023/05/29 09:39:48;;;;;;;10.60;3.27;;;16.20;1.00;;;;;;4945098;29;20188;-85
2023/05/29 09:42:17;;;;;;;17.87;3.83;;;15.90;1.00;;;;;;4945195;29;20212;-84
2023/05/29 09:44:53;;;;;;;15.10;3.60;;;16.00;1.00;;;;;;4944068;29;20212;-84
2023/05/29 09:47:19;;;;;;;7.57;3.33;;;16.00;1.00;;;;;;4941973;29;20169;-88
2023/05/29 09:49:49;;;;;;;10.77;3.17;;;16.00;1.00;;;;;;4944410;29;20153;-86
2023/05/29 09:52:20;;;;;;;8.93;3.23;;;16.00;1.00;;;;;;4944194;29;20203;-89
2023/05/29 09:54:46;;;;;;;10.40;2.87;;;16.00;1.00;;;;;;4943284;29;20181;-88
2023/05/29 09:57:17;;;;;;;11.83;3.60;;;16.00;1.00;;;;;;4942113;29;20686;-85
2023/05/29 09:59:51;;;;;;;11.53;3.43;;;16.30;1.00;;;;;;4976440;28;20210;-87
2023/05/29 10:02:18;;;;;;;8.63;3.17;;;16.50;1.00;;;;;;4945469;29;20187;-87
2023/05/29 10:04:44;;;;;;;11.40;3.50;;;16.60;1.00;;;;;;4942177;29;20264;-86
2023/05/29 10:07:26;;;;;;;10.00;3.60;;;16.90;1.00;;;;;;4942977;29;20181;-87
2023/05/29 10:09:58;;;;;;;9.10;3.00;;;16.80;1.00;;;;;;4945843;29;20189;-87
2023/05/29 10:12:26;;;;;;;12.67;3.40;;;16.50;1.00;;;;;;4945779;29;20244;-86
2023/05/29 10:14:56;;;;;;;11.83;3.27;;;16.40;1.00;;;;;;4976791;28;20173;-85
2023/05/29 10:17:25;;;;;;;11.83;2.73;;;16.50;1.00;;;;;;4949933;29;20220;-83
2023/05/29 10:19:52;;;;;;;11.80;3.10;;;16.70;1.00;;;;;;4954885;29;20272;-86
2023/05/29 10:22:21;;;;;;;11.43;3.50;;;16.90;1.00;;;;;;4954100;29;20180;-86
2023/05/29 10:24:50;;;;;;;10.60;3.43;;;16.80;1.00;;;;;;4954535;29;20161;-86
2023/05/29 10:27:16;;;;;;;14.43;3.00;;;16.80;1.00;;;;;;4949907;29;20212;-85
2023/05/29 10:29:53;;;;;;;12.03;4.00;;;16.90;1.00;;;;;;4953105;29;20170;-87
2023/05/29 10:32:19;;;;;;;10.60;3.17;;;16.90;1.00;;;;;;4953261;29;20172;-87
2023/05/29 10:34:57;;;;;;;8.10;3.20;;;17.20;1.00;;;;;;4951358;29;20179;-85
2023/05/29 10:37:28;;;;;;;8.13;3.07;;;17.30;1.00;;;;;;4951998;29;20236;-87
2023/05/29 10:40:17;;;;;;;12.67;3.27;;;17.30;99.90;;;;;;4950704;29;20173;-87
2023/05/29 10:42:46;;;;;;;13.90;2.90;;;17.10;1.00;;;;;;4944316;29;20329;-88
2023/05/29 10:45:32;;;;;;;8.23;3.10;;;17.20;1.00;;;;;;4943169;29;20192;-86
2023/05/29 10:48:06;;;;;;;10.30;2.87;;;17.10;1.00;;;;;;4944908;29;20173;-86
2023/05/29 10:50:36;;;;;;;8.80;3.50;;;17.10;1.00;;;;;;4943776;29;20173;-85
2023/05/29 10:53:03;;;;;;;10.83;3.60;;;17.10;1.00;;;;;;4944146;29;20194;-87
2023/05/29 10:55:40;;;;;;;9.20;2.80;;;17.30;1.00;;;;;;4927781;29;20211;-89
2023/05/29 10:58:36;;;;;;;7.30;2.87;;;17.50;99.90;;;;;;4948482;29;20201;-87
2023/05/29 11:01:03;;;;;;;9.23;3.00;;;17.40;99.90;;;;;;4947073;29;20193;-86
2023/05/29 11:03:34;;;;;;;11.60;3.33;;;17.30;99.90;;;;;;4943882;29;20174;-85
2023/05/29 11:06:23;;;;;;;8.63;3.43;;;17.40;99.90;;;;;;4944443;29;20630;-87
2023/05/29 11:08:57;;;;;;;12.03;3.13;;;17.60;99.90;;;;;;4943894;29;20181;-86
2023/05/29 11:11:31;;;;;;;13.33;3.40;;;17.80;99.90;;;;;;4962301;28;20154;-83
2023/05/29 11:14:04;;;;;;;8.97;2.70;;;17.90;99.90;;;;;;4957873;28;20216;-85
2023/05/29 11:16:32;;;;;;;9.87;2.60;;;18.00;99.90;;;;;;4957357;29;20217;-84
2023/05/29 11:19:06;;;;;;;15.43;2.87;;;17.60;99.90;;;;;;4958192;29;20173;-85
2023/05/29 11:21:49;;;;;;;9.23;2.93;;;17.80;99.90;;;;;;4943477;29;20181;-87
2023/05/29 11:24:26;;;;;;;7.93;3.00;;;18.00;99.90;;;;;;4943438;29;20272;-85
2023/05/29 11:26:55;;;;;;;9.77;3.07;;;18.30;99.90;;;;;;4960759;28;20176;-85
2023/05/29 11:29:27;;;;;;;9.07;2.90;;;18.40;99.90;;;;;;4961049;28;20184;-87
2023/05/29 11:32:02;;;;;;;12.40;3.67;;;18.50;99.90;;;;;;4960503;28;20191;-83
2023/05/29 11:34:32;;;;;;;10.87;3.73;;;18.40;99.90;;;;;;4960938;28;20180;-82
2023/05/29 11:37:03;;;;;;;10.00;3.10;;;18.30;99.90;;;;;;4958505;28;20216;-81
2023/05/29 11:46:18;;;;;;;11.30;3.40;;;18.50;99.90;;;;;;4940051;29;20276;-86
2023/05/29 11:48:46;;;;;;;8.57;2.83;;;18.40;99.90;;;;;;4940644;29;20628;-87
2023/05/29 11:51:15;;;;;;;8.00;2.67;;;18.40;99.90;;;;;;4922959;29;20181;-88
2023/05/29 11:53:43;;;;;;;6.43;2.53;;;18.50;99.90;;;;;;4940247;29;20208;-86
2023/05/29 11:56:13;;;;;;;12.63;3.47;;;18.70;99.90;;;;;;4941871;29;20229;-86
2023/05/29 11:58:40;;;;;;;8.00;3.17;;;18.90;99.90;;;;;;4940252;29;20264;-85
2023/05/29 12:01:10;;;;;;;12.47;3.23;;;18.80;99.90;;;;;;4940821;29;20584;-87
2023/05/29 12:03:40;;;;;;;7.53;3.37;;;18.80;99.90;;;;;;4940676;29;20173;-86
2023/05/29 12:06:07;;;;;;;6.63;2.70;;;18.70;99.90;;;;;;4940387;29;20206;-86
2023/05/29 12:08:33;;;;;;;10.37;3.03;;;18.80;99.90;;;;;;4942382;29;20178;-88
2023/05/29 12:10:59;;;;;;;8.93;2.57;;;19.10;99.90;;;;;;4945319;29;20154;-87
2023/05/29 12:13:25;;;;;;;12.10;3.43;;;19.10;99.90;;;;;;4942489;29;20205;-90
2023/05/29 12:15:55;;;;;;;22.17;4.10;;;19.10;99.90;;;;;;4945913;29;20169;-89
2023/05/29 12:18:21;;;;;;;8.37;2.67;;;19.10;99.90;;;;;;4942044;29;20189;-89
2023/05/29 12:20:47;;;;;;;9.13;3.13;;;19.00;99.90;;;;;;4925633;29;20237;-88
2023/05/29 12:23:14;;;;;;;7.13;3.37;;;19.10;99.90;;;;;;4943111;29;20747;-85
2023/05/29 12:25:44;;;;;;;9.93;3.00;;;19.20;99.90;;;;;;4949970;29;20176;-85
2023/05/29 12:28:17;;;;;;;5.70;2.40;;;19.40;81.60;;;;;;4957011;29;20160;-84
2023/05/29 12:30:49;;;;;;;8.33;3.17;;;19.40;1.00;;;;;;4957106;29;20198;-87
2023/05/29 12:33:31;;;;;;;7.97;2.53;;;19.10;39.50;;;;;;4956949;29;20172;-83
2023/05/29 12:36:08;;;;;;;6.63;2.67;;;19.10;91.80;;;;;;4956095;29;20169;-86
2023/05/29 12:38:46;;;;;;;8.43;3.20;;;19.10;82.50;;;;;;4957347;28;20197;-87
2023/05/29 12:41:33;;;;;;;10.70;2.70;;;19.30;99.90;;;;;;4958399;28;20171;-83
2023/05/29 12:44:03;;;;;;;11.77;3.50;;;19.10;24.40;;;;;;4956420;29;20202;-83
2023/05/29 12:46:37;;;;;;;9.90;2.80;;;19.20;99.90;;;;;;4956886;29;20169;-84
2023/05/29 12:49:21;;;;;;;8.10;2.77;;;19.30;64.00;;;;;;4957287;29;20181;-84
2023/05/29 12:51:47;;;;;;;9.33;3.03;;;19.40;1.00;;;;;;4954562;29;20182;-82
2023/05/29 12:54:14;;;;;;;7.47;2.70;;;19.40;1.00;;;;;;4954646;29;20157;-83
2023/05/29 12:56:41;;;;;;;11.57;2.73;;;19.40;1.00;;;;;;4955373;29;20290;-85
2023/05/29 12:59:08;;;;;;;8.87;3.30;;;19.50;6.60;;;;;;4954131;29;20188;-84